Time;durP1;ratioP1;P1;durP2;ratioP2;P2;SDS_P1;SDS_P2;PMS_P1;PMS_P2;Temp;Humidity;BMP_temperature;BMP_pressure;BME280_temperature;BME280_humidity;BME280_pressure;Samples;Min_cycle;Max_cycle;Signal;HPM_P1;HPM_P2
2021/06/20 00:00:03;;;;;;;0.20;0.20;;;;;;;19.96;71.17;100872.47;5094719;28;20028;-82
2021/06/20 00:02:30;;;;;;;1.77;0.80;;;;;;;20.09;70.59;100866.34;5094323;28;20028;-83
2021/06/20 00:04:56;;;;;;;0.55;0.55;;;;;;;20.04;70.60;100863.94;5094559;28;20119;-83
2021/06/20 00:07:24;;;;;;;0.35;0.35;;;;;;;19.94;70.93;100860.03;5094510;28;20425;-82
2021/06/20 00:09:50;;;;;;;0.10;0.10;;;;;;;19.93;71.28;100855.66;5094492;28;20395;-83
2021/06/20 00:12:17;;;;;;;0.30;0.30;;;;;;;19.96;71.30;100850.97;5094863;28;20024;-83
2021/06/20 00:14:43;;;;;;;0.70;0.70;;;;;;;19.95;71.49;100832.19;5094467;28;20051;-83
2021/06/20 00:17:10;;;;;;;0.10;0.10;;;;;;;19.93;71.22;100823.38;5094572;28;20107;-83
2021/06/20 00:19:36;;;;;;;0.65;0.65;;;;;;;19.88;71.46;100823.66;5094358;28;20074;-83
2021/06/20 00:22:03;;;;;;;0.05;0.05;;;;;;;19.89;71.54;100811.94;5094694;28;20024;-82
2021/06/20 00:24:29;;;;;;;0.20;0.20;;;;;;;20.00;70.90;100806.78;5094243;28;20091;-83
2021/06/20 00:26:55;;;;;;;2.92;1.15;;;;;;;20.01;71.32;100816.59;5094543;28;20035;-82
2021/06/20 00:29:22;;;;;;;0.47;0.47;;;;;;;20.11;70.79;100807.94;5093786;28;20077;-82
2021/06/20 00:31:48;;;;;;;0.22;0.22;;;;;;;20.13;70.68;100814.09;5094232;28;20032;-83
2021/06/20 00:34:15;;;;;;;0.35;0.35;;;;;;;20.09;71.32;100807.16;5094110;28;20055;-82
2021/06/20 00:36:41;;;;;;;1.15;1.05;;;;;;;20.14;71.24;100800.56;5094805;28;20042;-82
2021/06/20 00:39:08;;;;;;;0.55;0.55;;;;;;;20.22;70.94;100792.00;5093934;28;20471;-83
2021/06/20 00:41:34;;;;;;;0.45;0.45;;;;;;;20.24;71.12;100798.16;5094046;28;20051;-82
2021/06/20 00:44:02;;;;;;;1.55;0.68;;;;;;;20.36;70.83;100778.59;5093821;28;20035;-83
2021/06/20 00:46:29;;;;;;;0.13;0.13;;;;;;;20.35;71.03;100770.63;5094020;28;20078;-83
2021/06/20 00:48:55;;;;;;;0.25;0.25;;;;;;;20.37;70.95;100774.06;5093537;28;20118;-82
2021/06/20 00:51:22;;;;;;;0.65;0.65;;;;;;;20.40;70.71;100784.63;5094221;28;20486;-83
2021/06/20 00:53:49;;;;;;;4.30;0.57;;;;;;;20.23;71.73;100799.13;5093992;28;20031;-83
2021/06/20 00:56:17;;;;;;;1.60;0.85;;;;;;;20.47;70.59;100802.16;5094071;28;20028;-83
2021/06/20 00:58:44;;;;;;;0.10;0.10;;;;;;;20.46;71.08;100792.34;5093404;28;20467;-82
2021/06/20 01:01:11;;;;;;;0.95;0.57;;;;;;;20.51;71.09;100792.03;5093951;28;20118;-83
2021/06/20 01:03:37;;;;;;;0.22;0.22;;;;;;;20.54;70.60;100778.38;5093437;28;20026;-83
2021/06/20 01:06:04;;;;;;;0.20;0.20;;;;;;;20.49;70.60;100781.34;5093634;28;20504;-82
2021/06/20 01:08:30;;;;;;;0.10;0.10;;;;;;;20.43;70.69;100772.81;5093447;28;20479;-83
2021/06/20 01:10:57;;;;;;;0.15;0.15;;;;;;;20.39;70.80;100766.75;5093721;28;20035;-82
2021/06/20 01:13:24;;;;;;;1.55;1.20;;;;;;;20.49;70.40;100783.19;5093173;28;20184;-82
2021/06/20 01:15:51;;;;;;;0.10;0.10;;;;;;;20.49;70.62;100781.34;5093784;28;20111;-83
2021/06/20 01:18:20;;;;;;;0.73;0.73;;;;;;;20.53;70.27;100787.41;5093382;28;20035;-83
2021/06/20 01:20:47;;;;;;;0.00;0.00;;;;;;;20.54;70.50;100797.22;5093976;28;20463;-82
2021/06/20 01:23:13;;;;;;;0.55;0.55;;;;;;;20.22;70.80;100793.84;5093124;28;20387;-83
2021/06/20 01:25:43;;;;;;;0.30;0.30;;;;;;;20.31;70.46;100787.88;5093610;28;20052;-83
2021/06/20 01:28:10;;;;;;;0.17;0.17;;;;;;;20.13;70.81;100773.75;5094932;28;20031;-83
2021/06/20 01:30:44;;;;;;;0.10;0.10;;;;;;;20.16;70.22;100777.13;5094431;28;20058;-83
2021/06/20 01:33:12;;;;;;;0.20;0.20;;;;;;;20.06;70.33;100785.84;5093328;28;20024;-83
2021/06/20 01:35:38;;;;;;;0.10;0.10;;;;;;;19.80;70.85;100812.44;5093856;28;20032;-82
2021/06/20 01:38:08;;;;;;;0.30;0.30;;;;;;;19.60;71.09;100822.56;5093013;28;20024;-83
2021/06/20 01:40:35;;;;;;;0.15;0.15;;;;;;;19.55;70.86;100811.19;5094391;28;20055;-83
2021/06/20 01:43:02;;;;;;;0.13;0.13;;;;;;;19.12;71.83;100805.63;5093439;28;20035;-83
2021/06/20 01:45:28;;;;;;;0.10;0.10;;;;;;;19.16;71.61;100796.44;5093475;28;20131;-83
2021/06/20 01:47:58;;;;;;;0.10;0.10;;;;;;;19.13;71.55;100793.91;5093436;28;20052;-83
2021/06/20 01:50:25;;;;;;;0.05;0.05;;;;;;;18.96;71.97;100800.25;5093614;28;20067;-83
2021/06/20 01:53:12;;;;;;;0.00;0.00;;;;;;;18.86;72.27;100807.91;5093048;28;20032;-83
2021/06/20 01:55:42;;;;;;;0.22;0.22;;;;;;;18.75;72.47;100795.06;5093725;28;20360;-82
2021/06/20 01:58:12;;;;;;;0.10;0.10;;;;;;;18.94;71.54;100775.28;5093186;28;20117;-83
2021/06/20 02:00:42;;;;;;;0.10;0.10;;;;;;;18.78;72.07;100764.50;5093712;28;20024;-83
2021/06/20 02:03:11;;;;;;;0.10;0.10;;;;;;;18.84;71.97;100740.00;5092765;28;20020;-83
2021/06/20 02:05:38;;;;;;;1.10;0.68;;;;;;;18.62;72.48;100738.53;5093712;28;20020;-83
2021/06/20 02:08:05;;;;;;;0.10;0.10;;;;;;;18.80;72.02;100727.72;5093283;28;20071;-83
2021/06/20 02:10:32;;;;;;;0.03;0.03;;;;;;;18.64;72.52;100708.94;5093660;28;20028;-82
2021/06/20 02:12:59;;;;;;;0.10;0.10;;;;;;;18.70;72.36;100692.47;5092879;28;20466;-82
2021/06/20 02:15:26;;;;;;;0.52;0.52;;;;;;;18.61;72.46;100693.88;5094995;28;20024;-82
2021/06/20 02:17:52;;;;;;;0.17;0.17;;;;;;;18.63;72.65;100717.91;5096495;28;20031;-82
2021/06/20 02:20:20;;;;;;;0.10;0.10;;;;;;;18.83;72.11;100735.59;5097172;28;20024;-82
2021/06/20 02:22:51;;;;;;;0.10;0.10;;;;;;;18.89;71.95;100729.88;5095790;28;20028;-83
2021/06/20 02:25:19;;;;;;;0.35;0.35;;;;;;;18.82;72.23;100724.00;5096600;28;20485;-82
2021/06/20 02:27:48;;;;;;;0.30;0.30;;;;;;;18.91;71.70;100749.47;5096435;28;20024;-83
2021/06/20 02:30:15;;;;;;;0.10;0.10;;;;;;;19.16;70.75;100764.19;5096770;28;20024;-83
2021/06/20 02:32:42;;;;;;;0.10;0.10;;;;;;;19.13;71.29;100759.00;5096683;28;20451;-82
2021/06/20 02:35:10;;;;;;;0.20;0.20;;;;;;;18.95;71.60;100751.03;5097394;28;20020;-83
2021/06/20 02:37:38;;;;;;;0.10;0.10;;;;;;;18.96;71.68;100725.91;5096127;28;20032;-83
2021/06/20 02:40:06;;;;;;;0.10;0.10;;;;;;;18.97;71.42;100703.50;5096343;28;20021;-83
2021/06/20 02:42:33;;;;;;;0.10;0.10;;;;;;;19.03;71.00;100705.81;5096040;28;20032;-83
2021/06/20 02:45:00;;;;;;;0.32;0.20;;;;;;;18.89;71.56;100711.06;5096345;28;20040;-83
2021/06/20 02:47:26;;;;;;;0.45;0.45;;;;;;;19.00;70.96;100722.09;5095959;28;20398;-83
2021/06/20 02:49:53;;;;;;;0.57;0.57;;;;;;;19.03;70.55;100716.56;5095906;28;20020;-82
2021/06/20 02:52:20;;;;;;;0.10;0.10;;;;;;;18.94;70.92;100716.22;5096993;28;20534;-83
2021/06/20 02:54:49;;;;;;;0.10;0.10;;;;;;;18.92;70.66;100709.13;5096051;28;20080;-83
2021/06/20 02:57:19;;;;;;;0.30;0.30;;;;;;;18.72;71.40;100712.91;5096517;28;20100;-83
2021/06/20 02:59:47;;;;;;;0.10;0.10;;;;;;;18.84;70.68;100722.09;5095742;28;20028;-83
2021/06/20 03:02:13;;;;;;;0.22;0.22;;;;;;;18.78;71.13;100719.75;5096207;28;20452;-83
2021/06/20 03:04:40;;;;;;;0.10;0.10;;;;;;;18.65;71.63;100716.88;5095937;28;20193;-83
2021/06/20 03:07:07;;;;;;;0.10;0.10;;;;;;;18.87;70.90;100713.84;5096462;28;20027;-82
2021/06/20 03:09:35;;;;;;;0.10;0.10;;;;;;;18.85;71.16;100702.34;5095465;28;20043;-82
2021/06/20 03:12:02;;;;;;;0.00;0.00;;;;;;;19.00;70.52;100705.13;5096439;28;20039;-83
2021/06/20 03:14:29;;;;;;;0.10;0.10;;;;;;;19.04;70.22;100710.25;5095681;28;20415;-83
2021/06/20 03:16:56;;;;;;;0.05;0.05;;;;;;;19.00;70.55;100707.81;5096080;28;20169;-83
2021/06/20 03:19:23;;;;;;;0.10;0.10;;;;;;;18.95;70.88;100705.38;5077564;28;20463;-83
2021/06/20 03:21:51;;;;;;;0.10;0.10;;;;;;;18.96;70.80;100720.56;5078074;28;20463;-83
2021/06/20 03:24:18;;;;;;;1.60;0.43;;;;;;;18.93;70.94;100731.47;5095164;28;20030;-83
2021/06/20 03:26:44;;;;;;;0.22;0.22;;;;;;;18.96;70.40;100733.97;5095327;28;20475;-83
2021/06/20 03:29:11;;;;;;;0.03;0.03;;;;;;;18.96;70.57;100733.13;5094970;28;20043;-83
2021/06/20 03:31:37;;;;;;;0.10;0.10;;;;;;;18.98;70.31;100737.44;5095148;28;20028;-83
2021/06/20 03:34:04;;;;;;;0.10;0.10;;;;;;;18.84;70.56;100748.06;5095137;28;20031;-83
2021/06/20 03:36:31;;;;;;;0.10;0.10;;;;;;;18.86;70.33;100748.84;5095687;28;20028;-83
2021/06/20 03:38:57;;;;;;;0.10;0.10;;;;;;;18.81;70.59;100759.84;5094614;28;20127;-83
2021/06/20 03:41:24;;;;;;;0.10;0.10;;;;;;;18.88;70.38;100758.53;5095458;28;20111;-83
2021/06/20 03:43:51;;;;;;;0.20;0.20;;;;;;;18.83;70.20;100771.38;5094854;28;20442;-83
2021/06/20 03:46:18;;;;;;;0.10;0.10;;;;;;;18.79;70.63;100777.88;5095026;28;20035;-83
2021/06/20 03:48:45;;;;;;;0.10;0.10;;;;;;;18.85;70.64;100782.84;5094912;28;20089;-83
2021/06/20 03:51:12;;;;;;;0.10;0.10;;;;;;;18.72;71.29;100781.84;5095235;28;20063;-83
2021/06/20 03:53:39;;;;;;;0.10;0.10;;;;;;;18.89;70.65;100788.94;5094530;28;20024;-83
2021/06/20 03:56:06;;;;;;;0.22;0.22;;;;;;;18.91;70.78;100800.50;5094887;28;20111;-83
2021/06/20 03:58:32;;;;;;;0.10;0.10;;;;;;;19.01;70.48;100809.75;5095027;28;20078;-82
2021/06/20 04:00:59;;;;;;;0.20;0.20;;;;;;;18.96;70.73;100813.66;5094676;28;20391;-83
2021/06/20 04:03:25;;;;;;;0.10;0.10;;;;;;;18.90;70.81;100801.41;5094669;28;20028;-83
2021/06/20 04:05:52;;;;;;;0.10;0.10;;;;;;;18.89;70.89;100783.56;5094868;28;20081;-83
2021/06/20 04:08:18;;;;;;;0.10;0.10;;;;;;;18.98;70.75;100793.84;5094299;28;20028;-83
2021/06/20 04:10:44;;;;;;;0.17;0.17;;;;;;;18.96;70.71;100790.34;5095221;28;20043;-83
2021/06/20 04:13:11;;;;;;;0.10;0.10;;;;;;;19.07;70.29;100800.50;5094100;28;20012;-82
2021/06/20 04:15:37;;;;;;;0.10;0.10;;;;;;;19.14;70.54;100801.00;5095069;28;20119;-82
2021/06/20 04:18:04;;;;;;;0.08;0.08;;;;;;;19.26;70.60;100792.25;5094322;28;20036;-83
2021/06/20 04:20:31;;;;;;;0.10;0.10;;;;;;;19.33;70.58;100796.31;5094786;28;20028;-83
2021/06/20 04:22:57;;;;;;;0.10;0.10;;;;;;;19.44;70.42;100794.81;5093650;28;20133;-83
2021/06/20 04:25:24;;;;;;;0.10;0.10;;;;;;;19.45;70.19;100802.81;5094332;28;20020;-83
2021/06/20 04:27:50;;;;;;;0.10;0.10;;;;;;;19.41;70.16;100801.25;5094049;28;20032;-83
2021/06/20 04:30:20;;;;;;;0.05;0.05;;;;;;;19.32;70.25;100791.91;5094692;28;20020;-82
2021/06/20 04:32:48;;;;;;;0.10;0.10;;;;;;;19.44;70.13;100794.81;5093863;28;20073;-83
2021/06/20 04:35:15;;;;;;;0.10;0.10;;;;;;;19.43;69.88;100776.97;5094647;28;20060;-83
2021/06/20 04:37:42;;;;;;;0.10;0.10;;;;;;;19.36;70.24;100758.53;5093223;28;20032;-83
2021/06/20 04:40:13;;;;;;;0.10;0.10;;;;;;;19.44;69.86;100786.78;5094699;28;20024;-83
2021/06/20 04:42:43;;;;;;;0.00;0.00;;;;;;;19.46;69.77;100801.00;5120855;22;20535;-82
2021/06/20 04:45:12;;;;;;;0.28;0.28;;;;;;;19.49;69.87;100787.38;5115663;28;20066;-82
2021/06/20 04:47:42;;;;;;;0.10;0.10;;;;;;;19.58;69.61;100781.47;5115226;28;20130;-83
2021/06/20 04:50:09;;;;;;;0.47;0.47;;;;;;;19.62;69.63;100783.00;5114815;28;20041;-83
2021/06/20 04:52:38;;;;;;;0.10;0.10;;;;;;;19.59;69.87;100798.44;5114993;28;20081;-83
2021/06/20 04:55:05;;;;;;;0.10;0.10;;;;;;;19.62;69.98;100799.13;5113524;28;20080;-83
2021/06/20 04:57:31;;;;;;;3.72;0.50;;;;;;;19.68;69.58;100793.41;5115164;28;20052;-83
2021/06/20 05:00:01;;;;;;;0.10;0.10;;;;;;;19.59;69.78;100799.31;5115809;28;20023;-82
2021/06/20 05:02:28;;;;;;;0.10;0.10;;;;;;;19.42;69.84;100802.13;5115073;28;20028;-83
2021/06/20 05:04:56;;;;;;;0.10;0.10;;;;;;;19.25;70.35;100817.38;5114559;28;20367;-82
2021/06/20 05:07:23;;;;;;;0.03;0.03;;;;;;;19.44;69.89;100813.63;5114579;28;20368;-83
2021/06/20 05:09:49;;;;;;;0.10;0.10;;;;;;;19.42;70.03;100812.88;5114910;28;20031;-82
2021/06/20 05:12:16;;;;;;;0.32;0.32;;;;;;;19.37;70.01;100819.38;5115095;28;20471;-83
2021/06/20 05:14:45;;;;;;;0.10;0.10;;;;;;;19.25;70.42;100820.06;5114527;28;20035;-83
2021/06/20 05:17:13;;;;;;;0.75;0.75;;;;;;;19.52;69.60;100803.31;5115151;28;20036;-83
2021/06/20 05:19:41;;;;;;;0.10;0.10;;;;;;;19.42;69.78;100794.06;5114342;28;20031;-83
2021/06/20 05:22:08;;;;;;;0.65;0.65;;;;;;;19.56;69.48;100786.94;5114859;28;20386;-83
2021/06/20 05:24:34;;;;;;;0.10;0.10;;;;;;;19.56;69.69;100791.44;5114448;28;20036;-82
2021/06/20 05:27:01;;;;;;;0.10;0.10;;;;;;;19.67;69.58;100780.06;5114452;28;20030;-82
2021/06/20 05:29:27;;;;;;;0.03;0.03;;;;;;;19.75;69.47;100790.34;5114245;28;20031;-82
2021/06/20 05:31:54;;;;;;;0.22;0.22;;;;;;;19.85;69.21;100799.63;5114445;28;20043;-83
2021/06/20 05:34:20;;;;;;;0.35;0.35;;;;;;;19.86;69.50;100814.78;5113805;28;20037;-82
2021/06/20 05:36:47;;;;;;;0.10;0.10;;;;;;;19.92;69.30;100822.50;5115011;28;20032;-82
2021/06/20 05:39:13;;;;;;;0.10;0.10;;;;;;;19.75;68.94;100834.25;5114517;28;20028;-82
2021/06/20 05:41:39;;;;;;;0.65;0.50;;;;;;;19.79;69.28;100835.78;5115192;28;20059;-82
2021/06/20 05:44:06;;;;;;;0.00;0.00;;;;;;;19.81;68.91;100824.94;5114664;28;20035;-82
2021/06/20 05:46:32;;;;;;;0.08;0.08;;;;;;;19.81;69.04;100827.63;5114954;28;20024;-82
2021/06/20 05:48:59;;;;;;;0.05;0.05;;;;;;;19.90;68.92;100826.22;5113595;28;20398;-82
2021/06/20 05:51:25;;;;;;;0.45;0.30;;;;;;;19.93;68.92;100828.75;5117622;28;20027;-82
2021/06/20 05:53:52;;;;;;;0.17;0.17;;;;;;;20.04;68.81;100824.44;5117855;28;20383;-82
2021/06/20 05:56:19;;;;;;;0.10;0.10;;;;;;;20.04;68.72;100837.03;5118002;28;20031;-82
2021/06/20 05:58:45;;;;;;;0.10;0.10;;;;;;;19.96;68.00;100831.25;5118585;28;20035;-83
2021/06/20 06:01:11;;;;;;;0.10;0.10;;;;;;;20.09;68.25;100824.19;5118504;28;20038;-82
2021/06/20 06:03:37;;;;;;;0.30;0.30;;;;;;;20.06;67.70;100824.34;5117383;28;20058;-82
2021/06/20 06:06:04;;;;;;;0.10;0.10;;;;;;;20.19;68.20;100830.72;5117602;28;20031;-82
2021/06/20 06:08:31;;;;;;;0.10;0.10;;;;;;;20.17;67.33;100824.56;5118227;28;20066;-82
2021/06/20 06:11:02;;;;;;;0.10;0.10;;;;;;;20.35;67.92;100836.03;5117378;28;20034;-82
2021/06/20 06:13:28;;;;;;;0.10;0.10;;;;;;;20.30;67.71;100827.38;5117121;28;20027;-82
2021/06/20 06:15:54;;;;;;;0.10;0.10;;;;;;;20.35;67.64;100841.44;5117579;28;20495;-82
2021/06/20 06:18:20;;;;;;;0.10;0.10;;;;;;;20.34;66.67;100845.06;5117158;28;20028;-82
2021/06/20 06:20:47;;;;;;;0.10;0.10;;;;;;;20.48;67.06;100856.81;5118598;28;20020;-82
2021/06/20 06:23:13;;;;;;;0.10;0.10;;;;;;;20.49;67.10;100853.19;5116714;28;20046;-82
2021/06/20 06:25:40;;;;;;;0.10;0.10;;;;;;;20.52;67.32;100852.97;5118314;28;20535;-83
2021/06/20 06:28:06;;;;;;;0.10;0.10;;;;;;;20.57;67.17;100850.84;5116561;28;20122;-82
2021/06/20 06:30:33;;;;;;;0.10;0.10;;;;;;;20.65;67.02;100853.94;5117811;28;20458;-82
2021/06/20 06:33:04;;;;;;;0.10;0.10;;;;;;;20.75;67.07;100848.88;5117465;28;20032;-83
2021/06/20 06:35:31;;;;;;;0.10;0.10;;;;;;;20.84;66.62;100860.91;5117077;28;20051;-83
2021/06/20 06:37:57;;;;;;;0.10;0.10;;;;;;;20.88;66.33;100857.03;5116322;28;20059;-82
2021/06/20 06:40:23;;;;;;;0.10;0.10;;;;;;;20.87;64.73;100868.78;5116990;28;20027;-82
2021/06/20 06:42:50;;;;;;;0.10;0.10;;;;;;;21.01;65.80;100871.47;5116090;28;20119;-83
2021/06/20 06:45:17;;;;;;;0.25;0.25;;;;;;;21.03;66.03;100878.59;5116740;28;20024;-83
2021/06/20 06:47:43;;;;;;;0.05;0.05;;;;;;;21.09;66.31;100886.28;5116609;28;20081;-83
2021/06/20 06:50:10;;;;;;;0.10;0.10;;;;;;;20.93;65.85;100883.69;5116539;28;20081;-83
2021/06/20 06:52:36;;;;;;;0.10;0.10;;;;;;;21.17;66.18;100874.06;5116826;28;20023;-83
2021/06/20 06:55:05;;;;;;;0.10;0.10;;;;;;;21.14;65.44;100876.06;5117148;28;20113;-83
2021/06/20 06:57:32;;;;;;;0.10;0.10;;;;;;;21.11;65.03;100882.53;5118477;28;20107;-83
2021/06/20 06:59:58;;;;;;;0.10;0.10;;;;;;;20.92;65.42;100890.91;5116402;28;20104;-83
2021/06/20 07:02:25;;;;;;;0.10;0.10;;;;;;;21.13;65.67;100879.72;5117853;28;20023;-83
2021/06/20 07:04:51;;;;;;;0.10;0.10;;;;;;;21.28;65.63;100889.53;5117942;28;20023;-84
2021/06/20 07:07:17;;;;;;;0.10;0.10;;;;;;;21.28;66.08;100902.13;5116203;28;20028;-82
2021/06/20 07:09:44;;;;;;;0.10;0.10;;;;;;;21.23;65.29;100902.41;5115739;28;20027;-83
2021/06/20 07:12:11;;;;;;;0.10;0.10;;;;;;;21.43;65.61;100903.84;5116204;28;20039;-82
2021/06/20 07:14:37;;;;;;;0.10;0.10;;;;;;;21.62;64.88;100902.66;5115702;28;20031;-82
2021/06/20 07:17:04;;;;;;;0.10;0.10;;;;;;;21.73;64.80;100904.66;5115297;28;20031;-83
2021/06/20 07:19:31;;;;;;;0.73;0.73;;;;;;;21.71;64.45;100906.56;5116359;28;20051;-83
2021/06/20 07:21:58;;;;;;;0.10;0.10;;;;;;;21.68;64.58;100901.41;5117285;28;20028;-82
2021/06/20 07:24:24;;;;;;;0.10;0.10;;;;;;;21.68;64.43;100898.69;5115645;28;20032;-82
2021/06/20 07:26:50;;;;;;;0.10;0.10;;;;;;;21.76;64.38;100893.69;5116604;28;20107;-82
2021/06/20 07:29:16;;;;;;;0.00;0.00;;;;;;;21.63;64.14;100893.59;5116734;28;20092;-82
2021/06/20 07:31:43;;;;;;;0.00;0.00;;;;;;;21.69;63.98;100897.75;5116918;28;20092;-83
2021/06/20 07:34:09;;;;;;;0.55;0.55;;;;;;;21.66;64.30;100893.41;5116283;28;20425;-83
2021/06/20 07:36:35;;;;;;;0.28;0.28;;;;;;;21.73;64.00;100889.34;5115647;28;20028;-82
2021/06/20 07:39:03;;;;;;;0.10;0.10;;;;;;;21.83;63.86;100888.72;5115965;28;20033;-82
2021/06/20 07:41:29;;;;;;;0.10;0.10;;;;;;;21.93;63.45;100879.94;5116748;28;20061;-82
2021/06/20 07:43:55;;;;;;;0.10;0.10;;;;;;;22.05;64.02;100882.75;5116126;28;20028;-83
2021/06/20 07:46:21;;;;;;;0.17;0.17;;;;;;;22.10;63.59;100880.59;5116070;28;20023;-83
2021/06/20 07:48:48;;;;;;;0.10;0.10;;;;;;;22.22;64.43;100885.16;5115597;28;20432;-83
2021/06/20 07:51:14;;;;;;;0.10;0.10;;;;;;;22.43;63.64;100885.56;5116163;28;20024;-83
2021/06/20 07:53:40;;;;;;;0.13;0.13;;;;;;;22.39;62.38;100892.16;5115629;28;20030;-83
2021/06/20 07:56:06;;;;;;;0.30;0.30;;;;;;;22.42;63.22;100896.47;5116425;28;20023;-83
2021/06/20 07:58:33;;;;;;;0.10;0.10;;;;;;;22.19;62.84;100901.56;5115985;28;20418;-82
2021/06/20 08:00:59;;;;;;;0.10;0.10;;;;;;;22.45;62.75;100907.03;5115306;28;20088;-83
2021/06/20 08:03:25;;;;;;;0.10;0.10;;;;;;;22.47;62.52;100907.81;5114640;28;20378;-83
2021/06/20 08:05:51;;;;;;;0.30;0.30;;;;;;;22.58;62.33;100912.44;5115541;28;20097;-83
2021/06/20 08:08:18;;;;;;;0.10;0.10;;;;;;;22.45;62.01;100912.44;5115692;28;20038;-83
2021/06/20 08:10:45;;;;;;;0.30;0.30;;;;;;;22.38;61.58;100916.53;5115520;28;20031;-83
2021/06/20 08:13:11;;;;;;;1.10;0.57;;;;;;;22.66;61.58;100911.94;5114827;28;20034;-83
2021/06/20 08:15:37;;;;;;;0.10;0.10;;;;;;;22.53;61.09;100914.59;5115556;28;20024;-83
2021/06/20 08:18:04;;;;;;;0.35;0.35;;;;;;;22.72;61.46;100908.78;5114943;28;20027;-83
2021/06/20 08:20:30;;;;;;;0.10;0.10;;;;;;;22.98;61.14;100911.47;5115137;28;20038;-83
2021/06/20 08:22:56;;;;;;;0.17;0.17;;;;;;;22.94;60.09;100911.69;5115719;28;20031;-83
2021/06/20 08:25:22;;;;;;;0.45;0.45;;;;;;;23.14;60.05;100903.13;5116086;28;20082;-82
2021/06/20 08:27:48;;;;;;;0.10;0.10;;;;;;;23.13;59.62;100906.78;5114734;28;20054;-83
2021/06/20 08:30:15;;;;;;;0.10;0.10;;;;;;;23.05;59.71;100915.47;5115825;28;20497;-84
2021/06/20 08:32:42;;;;;;;0.28;0.28;;;;;;;22.97;59.75;100924.13;5115438;28;20036;-83
2021/06/20 08:35:09;;;;;;;0.25;0.25;;;;;;;23.00;58.81;100923.88;5115660;28;20024;-83
2021/06/20 08:37:38;;;;;;;0.40;0.40;;;;;;;23.08;59.03;100920.66;5115643;28;20027;-83
2021/06/20 08:40:06;;;;;;;0.10;0.10;;;;;;;23.16;59.40;100903.91;5115571;28;20606;-84
2021/06/20 08:42:32;;;;;;;0.55;0.55;;;;;;;23.47;58.76;100909.81;5115696;28;20143;-84
2021/06/20 08:44:58;;;;;;;0.10;0.10;;;;;;;23.15;58.73;100911.13;5115233;28;20034;-83
2021/06/20 08:47:25;;;;;;;0.32;0.20;;;;;;;23.38;58.20;100922.16;5115578;28;20535;-83
2021/06/20 08:49:51;;;;;;;0.10;0.10;;;;;;;23.59;58.66;100920.56;5113871;28;20384;-83
2021/06/20 08:52:17;;;;;;;0.20;0.20;;;;;;;23.60;59.26;100921.41;5114727;28;20027;-83
2021/06/20 08:55:00;;;;;;;2.08;0.50;;;;;;;23.53;58.43;100928.28;5113333;28;20470;-84
2021/06/20 08:57:32;;;;;;;0.20;0.20;;;;;;;23.46;58.35;100929.69;5114978;28;20092;-83
2021/06/20 08:59:58;;;;;;;0.10;0.10;;;;;;;23.33;59.55;100935.13;5115586;28;20031;-83
2021/06/20 09:02:28;;;;;;;0.10;0.10;;;;;;;23.59;58.21;100939.50;5113272;28;20470;-84
2021/06/20 09:04:56;;;;;;;0.15;0.15;;;;;;;23.54;58.70;100938.97;5114410;28;20034;-84
2021/06/20 09:07:32;;;;;;;0.10;0.10;;;;;;;23.70;58.14;100940.53;5114316;28;20023;-84
2021/06/20 09:10:13;;;;;;;0.40;0.40;;;;;;;23.86;57.74;100934.84;5114529;28;20034;-84
2021/06/20 09:15:28;;;;;;;0.52;0.52;;;;;;;23.69;57.76;100949.63;5089562;27;20392;-84
2021/06/20 09:17:56;;;;;;;0.30;0.30;;;;;;;24.15;56.20;100958.88;5091679;28;20439;-85
2021/06/20 09:23:19;;;;;;;12.30;1.98;;;;;;;24.07;55.72;100956.75;5072569;27;20171;-84
2021/06/20 09:25:55;;;;;;;0.10;0.10;;;;;;;24.48;55.77;100954.59;5071812;28;20036;-84
2021/06/20 09:28:29;;;;;;;0.40;0.40;;;;;;;24.33;55.92;100962.06;5072011;28;20025;-84
2021/06/20 09:30:55;;;;;;;0.10;0.10;;;;;;;24.15;55.71;100967.88;5071821;28;20036;-84
2021/06/20 09:33:21;;;;;;;1.35;1.00;;;;;;;23.92;56.73;100963.34;5070724;28;20505;-84
2021/06/20 09:35:52;;;;;;;0.40;0.40;;;;;;;24.09;56.58;100953.94;5071399;28;20028;-84
2021/06/20 09:41:14;;;;;;;0.10;0.10;;;;;;;24.92;54.83;100952.13;5090431;27;20156;-85
2021/06/20 09:43:56;;;;;;;0.30;0.30;;;;;;;24.85;55.60;100966.16;5070749;28;20032;-85
2021/06/20 09:46:23;;;;;;;0.55;0.55;;;;;;;25.04;53.97;100962.84;5072176;28;20155;-85
2021/06/20 09:48:50;;;;;;;0.10;0.10;;;;;;;24.93;53.45;100959.28;5071315;28;20052;-84
2021/06/20 09:51:22;;;;;;;0.10;0.10;;;;;;;25.16;52.39;100944.75;5071155;28;20029;-85
2021/06/20 09:53:50;;;;;;;0.10;0.10;;;;;;;25.18;52.70;100948.22;5071729;28;20206;-85
2021/06/20 09:59:01;;;;;;;0.20;0.20;;;;;;;25.02;52.58;100955.81;5090928;28;20175;-85
2021/06/20 10:01:29;;;;;;;0.10;0.10;;;;;;;25.12;52.52;100962.25;5089468;28;20368;-85
2021/06/20 10:03:56;;;;;;;0.20;0.20;;;;;;;25.23;52.98;100955.94;5071389;28;20443;-85
2021/06/20 10:06:23;;;;;;;0.63;0.63;;;;;;;25.22;52.59;100951.50;5071884;28;20053;-84
2021/06/20 10:08:49;;;;;;;0.82;0.82;;;;;;;25.13;51.26;100954.97;5070226;28;20029;-85
2021/06/20 10:11:17;;;;;;;0.30;0.30;;;;;;;24.79;50.48;100963.94;5069849;28;20090;-85
2021/06/20 10:13:44;;;;;;;0.10;0.10;;;;;;;24.92;51.36;100963.81;5071393;28;20036;-85
2021/06/20 10:16:20;;;;;;;0.52;0.52;;;;;;;25.00;52.24;100971.38;5070933;28;20052;-85
2021/06/20 10:18:55;;;;;;;0.20;0.20;;;;;;;25.14;51.14;100965.69;5070828;28;20123;-85
2021/06/20 10:21:37;;;;;;;1.65;0.60;;;;;;;25.41;50.14;100963.63;5071281;28;20028;-85
2021/06/20 10:27:05;;;;;;;0.10;0.10;;;;;;;25.64;49.25;100953.59;5091225;28;20609;-85
2021/06/20 10:29:35;;;;;;;0.40;0.40;;;;;;;25.75;48.15;100956.28;5091625;28;20471;-85
2021/06/20 10:32:16;;;;;;;0.10;0.10;;;;;;;25.76;49.34;100952.59;5085142;28;20127;-85
2021/06/20 10:35:00;;;;;;;0.10;0.10;;;;;;;25.96;49.32;100972.66;5071693;28;20115;-85
2021/06/20 10:37:35;;;;;;;0.32;0.32;;;;;;;25.72;48.95;100962.00;5071727;28;20024;-85
2021/06/20 10:40:04;;;;;;;0.10;0.10;;;;;;;25.63;49.75;100968.16;5071581;28;20040;-85
2021/06/20 10:42:37;;;;;;;0.20;0.20;;;;;;;25.44;49.63;100980.50;5072233;28;20071;-85
2021/06/20 10:45:05;;;;;;;0.10;0.10;;;;;;;25.38;49.96;100980.16;5071230;28;20539;-85
2021/06/20 10:47:35;;;;;;;0.13;0.13;;;;;;;25.37;50.00;100968.41;5071961;28;20391;-84
2021/06/20 10:50:08;;;;;;;0.10;0.10;;;;;;;25.27;50.30;100978.25;5071318;28;20039;-85
2021/06/20 10:52:35;;;;;;;0.17;0.17;;;;;;;25.20;50.28;100973.31;5071160;28;20132;-85
2021/06/20 10:57:55;;;;;;;0.65;0.65;;;;;;;25.13;50.24;100974.78;5090591;28;20171;-85
2021/06/20 11:00:30;;;;;;;0.10;0.10;;;;;;;25.40;49.56;100972.75;5092491;28;20060;-85
2021/06/20 11:05:50;;;;;;;0.10;0.10;;;;;;;25.89;48.62;100967.88;5091629;27;20637;-84
2021/06/20 11:08:43;;;;;;;0.10;0.10;;;;;;;26.19;47.99;100969.03;5092608;28;20033;-85
2021/06/20 11:11:09;;;;;;;0.20;0.20;;;;;;;25.90;48.90;100969.59;5092363;28;20038;-85
2021/06/20 11:13:37;;;;;;;0.15;0.15;;;;;;;25.90;48.94;100969.59;5071928;28;20033;-85
2021/06/20 11:18:45;;;;;;;0.10;0.10;;;;;;;25.56;48.85;100972.34;5090805;27;20164;-84
2021/06/20 11:21:11;;;;;;;0.10;0.10;;;;;;;25.64;49.64;100967.16;5092766;28;20479;-85
2021/06/20 11:23:40;;;;;;;0.22;0.22;;;;;;;25.28;49.23;100969.16;5071589;28;20029;-84
2021/06/20 11:26:07;;;;;;;0.10;0.10;;;;;;;25.39;49.69;100954.75;5070996;28;20128;-84
2021/06/20 11:28:36;;;;;;;0.10;0.10;;;;;;;25.79;49.67;100959.63;5071516;28;20046;-84
2021/06/20 11:31:10;;;;;;;0.20;0.20;;;;;;;26.16;48.37;100956.56;5072648;28;20135;-84
2021/06/20 11:33:38;;;;;;;0.10;0.10;;;;;;;26.38;46.59;100952.03;5071539;28;20043;-85
2021/06/20 11:36:05;;;;;;;0.30;0.30;;;;;;;26.83;48.42;100945.47;5071512;28;20063;-85
2021/06/20 11:38:36;;;;;;;0.10;0.10;;;;;;;27.20;46.36;100934.91;5069983;28;20029;-86
2021/06/20 11:41:21;;;;;;;0.52;0.52;;;;;;;27.72;45.27;100928.53;5071643;28;20052;-86
2021/06/20 11:43:59;;;;;;;0.10;0.10;;;;;;;27.96;43.99;100932.72;5071311;28;20025;-85
2021/06/20 11:46:27;;;;;;;0.13;0.13;;;;;;;27.91;43.65;100930.41;5071681;28;20055;-85
2021/06/20 11:48:58;;;;;;;0.10;0.10;;;;;;;27.72;45.88;100937.53;5070815;28;20112;-85